DEHHV LOLT-LOWW
Flight info
| Callsign | DEHHV |
|---|---|
| Flight time | N/A |
| Altitude | 3500 |
| Route | DANUBE |
| Aircraft | P28/L-SG/S |
Departure
| Time | 2026-05-07 14:23 |
|---|---|
| Airport | Flugplatz Seitenstetten (LOLT) |
Arrival
| Time | N/A |
|---|---|
| Airport | Vienna International Airport (LOWW) |
| Time | Latitude | Longitude | Altitude | Speed | Heading |
|---|---|---|---|---|---|
| 2026-05-07 14:13 | 48.05145 | 14.66172 | 1049 ft | 0 kts | 4° |
| 2026-05-07 14:17 | 48.05131 | 14.66175 | 1050 ft | 0 kts | 324° |
| 2026-05-07 14:18 | 48.05133 | 14.66166 | 1050 ft | 4 kts | 266° |
| 2026-05-07 14:18 | 48.05115 | 14.66135 | 1051 ft | 4 kts | 227° |
| 2026-05-07 14:18 | 48.05093 | 14.66096 | 1052 ft | 7 kts | 224° |
| 2026-05-07 14:18 | 48.05090 | 14.66093 | 1052 ft | 0 kts | 223° |
| 2026-05-07 14:19 | 48.05082 | 14.66081 | 1052 ft | 8 kts | 222° |
| 2026-05-07 14:19 | 48.05075 | 14.65942 | 1053 ft | 20 kts | 292° |
| 2026-05-07 14:19 | 48.05099 | 14.65738 | 1054 ft | 4 kts | 225° |
| 2026-05-07 14:20 | 48.05084 | 14.65745 | 1053 ft | 0 kts | 96° |
| 2026-05-07 14:21 | 48.05082 | 14.65781 | 1053 ft | 15 kts | 94° |
| 2026-05-07 14:21 | 48.05059 | 14.66162 | 1051 ft | 57 kts | 97° |
| 2026-05-07 14:22 | 48.05026 | 14.66906 | 1068 ft | 82 kts | 94° |
| 2026-05-07 14:22 | 48.05097 | 14.67724 | 1248 ft | 77 kts | 81° |
| 2026-05-07 14:22 | 48.05246 | 14.68478 | 1349 ft | 78 kts | 76° |
| 2026-05-07 14:22 | 48.05443 | 14.69224 | 1423 ft | 77 kts | 70° |
| 2026-05-07 14:23 | 48.05730 | 14.69935 | 1487 ft | 80 kts | 63° |
| 2026-05-07 14:23 | 48.06002 | 14.70665 | 1568 ft | 79 kts | 70° |
| 2026-05-07 14:23 | 48.06270 | 14.71368 | 1736 ft | 77 kts | 72° |
| 2026-05-07 14:23 | 48.06553 | 14.72060 | 1894 ft | 77 kts | 69° |
| 2026-05-07 14:24 | 48.06846 | 14.72730 | 2030 ft | 77 kts | 70° |
| 2026-05-07 14:24 | 48.07147 | 14.73438 | 2120 ft | 82 kts | 70° |
| 2026-05-07 14:24 | 48.07476 | 14.74128 | 2332 ft | 81 kts | 64° |
| 2026-05-07 14:24 | 48.07854 | 14.74781 | 2468 ft | 86 kts | 57° |
| 2026-05-07 14:25 | 48.08231 | 14.75439 | 2643 ft | 81 kts | 60° |
| 2026-05-07 14:25 | 48.08575 | 14.76141 | 2767 ft | 82 kts | 65° |
| 2026-05-07 14:25 | 48.08932 | 14.76833 | 2895 ft | 90 kts | 64° |
| 2026-05-07 14:25 | 48.09295 | 14.77593 | 3026 ft | 94 kts | 71° |
| 2026-05-07 14:26 | 48.09593 | 14.78433 | 3186 ft | 90 kts | 79° |
| 2026-05-07 14:26 | 48.09757 | 14.79013 | 3323 ft | 91 kts | 83° |
| 2026-05-07 14:26 | 48.09950 | 14.79964 | 3363 ft | 103 kts | 92° |
| 2026-05-07 14:26 | 48.10130 | 14.80933 | 3527 ft | 96 kts | 82° |
| 2026-05-07 14:27 | 48.10572 | 14.81812 | 3499 ft | 111 kts | 53° |
| 2026-05-07 14:27 | 48.11262 | 14.82441 | 3497 ft | 117 kts | 38° |
| 2026-05-07 14:27 | 48.12043 | 14.82909 | 3406 ft | 126 kts | 33° |
| 2026-05-07 14:27 | 48.12878 | 14.83366 | 3404 ft | 125 kts | 19° |
| 2026-05-07 14:28 | 48.13745 | 14.83628 | 3395 ft | 132 kts | 17° |
| 2026-05-07 14:28 | 48.14638 | 14.83901 | 3327 ft | 133 kts | 18° |
| 2026-05-07 14:28 | 48.15515 | 14.84181 | 3336 ft | 128 kts | 18° |
| 2026-05-07 14:28 | 48.16393 | 14.84458 | 3390 ft | 125 kts | 17° |
| 2026-05-07 14:29 | 48.17259 | 14.84756 | 3405 ft | 131 kts | 18° |
| 2026-05-07 14:29 | 48.18140 | 14.85022 | 3426 ft | 133 kts | 14° |
| 2026-05-07 14:29 | 48.19054 | 14.85287 | 3399 ft | 134 kts | 17° |
| 2026-05-07 14:29 | 48.19946 | 14.85663 | 3380 ft | 132 kts | 25° |
| 2026-05-07 14:30 | 48.20759 | 14.86270 | 3446 ft | 129 kts | 37° |
| 2026-05-07 14:30 | 48.21443 | 14.87118 | 3429 ft | 125 kts | 54° |
| 2026-05-07 14:30 | 48.21872 | 14.88223 | 3410 ft | 123 kts | 77° |
| 2026-05-07 14:30 | 48.21969 | 14.89443 | 3372 ft | 116 kts | 99° |
| 2026-05-07 14:31 | 48.21883 | 14.90656 | 3322 ft | 118 kts | 107° |
| 2026-05-07 14:31 | 48.21760 | 14.91881 | 3390 ft | 118 kts | 104° |
| 2026-05-07 14:31 | 48.21652 | 14.93129 | 3420 ft | 123 kts | 103° |
| 2026-05-07 14:31 | 48.21555 | 14.94381 | 3516 ft | 116 kts | 103° |
| 2026-05-07 14:32 | 48.21463 | 14.95602 | 3388 ft | 121 kts | 104° |
| 2026-05-07 14:32 | 48.21347 | 14.96885 | 3369 ft | 123 kts | 102° |
| 2026-05-07 14:32 | 48.21272 | 14.98154 | 3470 ft | 121 kts | 101° |
| 2026-05-07 14:32 | 48.21197 | 14.99420 | 3463 ft | 124 kts | 101° |
| 2026-05-07 14:33 | 48.21144 | 15.00697 | 3564 ft | 120 kts | 98° |
| 2026-05-07 14:33 | 48.21169 | 15.01962 | 3523 ft | 125 kts | 94° |
| 2026-05-07 14:33 | 48.21212 | 15.03261 | 3529 ft | 121 kts | 95° |
| 2026-05-07 14:33 | 48.21270 | 15.04538 | 3417 ft | 128 kts | 91° |
| 2026-05-07 14:34 | 48.21398 | 15.05844 | 3519 ft | 122 kts | 85° |
| 2026-05-07 14:34 | 48.21592 | 15.07109 | 3473 ft | 130 kts | 85° |
| 2026-05-07 14:34 | 48.21779 | 15.08422 | 3509 ft | 127 kts | 86° |
| 2026-05-07 14:34 | 48.21946 | 15.09716 | 3530 ft | 125 kts | 86° |
| 2026-05-07 14:35 | 48.22081 | 15.11002 | 3519 ft | 125 kts | 86° |
| 2026-05-07 14:35 | 48.22248 | 15.12298 | 3494 ft | 127 kts | 84° |
| 2026-05-07 14:35 | 48.22446 | 15.13575 | 3507 ft | 127 kts | 83° |
| 2026-05-07 14:35 | 48.22686 | 15.14847 | 3482 ft | 128 kts | 83° |
| 2026-05-07 14:36 | 48.22946 | 15.16128 | 3481 ft | 129 kts | 78° |
| 2026-05-07 14:36 | 48.23243 | 15.17403 | 3509 ft | 127 kts | 79° |
| 2026-05-07 14:36 | 48.23481 | 15.18673 | 3456 ft | 129 kts | 83° |
| 2026-05-07 14:36 | 48.23668 | 15.19976 | 3563 ft | 125 kts | 85° |
| 2026-05-07 14:37 | 48.23852 | 15.21261 | 3549 ft | 131 kts | 86° |
| 2026-05-07 14:37 | 48.24170 | 15.23959 | 3533 ft | 131 kts | 89° |
| 2026-05-07 14:37 | 48.24318 | 15.25296 | 3519 ft | 131 kts | 86° |